createdAt,value
2018-08-22T04:00:53.273Z,19.16
2018-08-22T04:01:53.148Z,19.23
2018-08-22T04:03:45.852Z,19.19
2018-08-22T04:04:45.726Z,19.23
2018-08-22T04:06:38.434Z,19.35
2018-08-22T04:07:38.303Z,19.30
2018-08-22T04:09:30.985Z,19.30
2018-08-22T04:10:30.881Z,19.32
2018-08-22T04:12:23.580Z,19.35
2018-08-22T04:13:23.459Z,19.34
2018-08-22T04:15:16.140Z,19.38
2018-08-22T04:16:16.038Z,19.32
2018-08-22T04:18:08.739Z,19.28
2018-08-22T04:19:08.608Z,19.27
2018-08-22T04:21:01.296Z,19.32
2018-08-22T04:22:01.199Z,19.24
2018-08-22T04:23:53.894Z,19.19
2018-08-22T04:24:53.768Z,19.17
2018-08-22T04:26:46.465Z,19.23
2018-08-22T04:27:46.350Z,19.17
2018-08-22T04:29:39.033Z,19.07
2018-08-22T04:30:38.928Z,19.09
2018-08-22T04:32:31.628Z,18.99
2018-08-22T04:33:31.510Z,19.05
2018-08-22T04:35:24.195Z,19.00
2018-08-22T04:36:24.090Z,18.99
2018-08-22T04:38:16.790Z,18.93
2018-08-22T04:39:16.675Z,18.91
2018-08-22T04:41:09.351Z,18.99
2018-08-22T04:42:09.257Z,18.97
2018-08-22T04:44:01.951Z,19.00
2018-08-22T04:45:01.830Z,18.99
2018-08-22T04:46:54.535Z,18.99
2018-08-22T04:47:54.414Z,19.05
2018-08-22T04:49:47.089Z,19.00
2018-08-22T04:50:46.992Z,19.07
2018-08-22T04:52:40.183Z,19.07
2018-08-22T04:53:40.057Z,19.07
2018-08-22T04:55:32.739Z,19.10
2018-08-22T04:56:32.640Z,19.10
2018-08-22T04:58:25.344Z,19.15
2018-08-22T04:59:25.220Z,19.20
2018-08-22T05:01:17.909Z,19.24
2018-08-22T05:02:17.809Z,19.13
2018-08-22T05:04:10.658Z,19.32
2018-08-22T05:05:10.399Z,19.25
2018-08-22T05:07:03.093Z,19.32
2018-08-22T05:08:02.980Z,19.40
2018-08-22T05:09:55.656Z,19.49
2018-08-22T05:10:55.555Z,19.40
2018-08-22T05:12:48.257Z,19.45
2018-08-22T05:13:48.139Z,19.57
2018-08-22T05:15:40.819Z,19.47
2018-08-22T05:16:40.759Z,19.49
2018-08-22T05:18:33.411Z,19.63
2018-08-22T05:19:33.300Z,19.72
2018-08-22T05:21:26.002Z,19.78
2018-08-22T05:22:25.881Z,19.85
2018-08-22T05:24:18.564Z,19.83
2018-08-22T05:25:18.466Z,19.87
2018-08-22T05:27:11.164Z,19.97
2018-08-22T05:28:11.038Z,20.00
2018-08-22T05:30:03.763Z,20.10
2018-08-22T05:31:03.623Z,20.08
2018-08-22T05:32:56.373Z,20.20
2018-08-22T05:33:56.215Z,20.23
2018-08-22T05:35:48.901Z,20.35
2018-08-22T05:36:48.797Z,20.32
2018-08-22T05:38:41.508Z,20.38
2018-08-22T05:39:41.389Z,20.34
2018-08-22T05:41:34.090Z,20.44
2018-08-22T05:42:33.961Z,20.49
2018-08-22T05:44:26.673Z,20.42
2018-08-22T05:45:26.565Z,20.51
2018-08-22T05:47:19.261Z,20.51
2018-08-22T05:48:19.139Z,20.44
2018-08-22T05:50:11.832Z,20.44
2018-08-22T05:51:11.729Z,20.35
2018-08-22T05:53:04.437Z,20.30
2018-08-22T05:54:04.310Z,20.30
2018-08-22T05:55:57.000Z,20.44
2018-08-22T05:56:56.912Z,20.53
2018-08-22T05:58:49.625Z,20.58
2018-08-22T05:59:49.500Z,20.53
2018-08-22T06:01:42.219Z,20.71
2018-08-22T06:02:42.089Z,20.64
2018-08-22T06:04:34.776Z,20.78
2018-08-22T06:05:34.672Z,20.78
2018-08-22T06:07:27.374Z,20.79
2018-08-22T06:08:27.248Z,20.86
2018-08-22T06:10:19.966Z,20.83
2018-08-22T06:11:19.857Z,20.85
2018-08-22T06:13:12.564Z,20.98
2018-08-22T06:14:12.447Z,21.12
2018-08-22T06:16:05.129Z,21.18
2018-08-22T06:17:05.032Z,21.27
2018-08-22T06:18:57.878Z,21.28
2018-08-22T06:19:57.617Z,21.27
2018-08-22T06:21:50.316Z,21.43
2018-08-22T06:22:50.202Z,21.51
2018-08-22T06:24:42.921Z,21.53
2018-08-22T06:25:42.822Z,21.52
2018-08-22T06:27:35.537Z,21.62
2018-08-22T06:28:35.409Z,21.66
2018-08-22T06:30:28.098Z,21.66
2018-08-22T06:31:27.994Z,21.71
2018-08-22T06:33:20.722Z,21.89
2018-08-22T06:34:20.607Z,21.83
2018-08-22T06:36:13.297Z,21.93
2018-08-22T06:37:13.193Z,21.83
2018-08-22T06:39:05.900Z,21.96
2018-08-22T06:40:05.785Z,22.02
2018-08-22T06:41:58.499Z,22.11
2018-08-22T06:42:58.370Z,22.16
2018-08-22T06:44:51.061Z,22.39
2018-08-22T06:45:50.971Z,22.54
2018-08-22T06:47:43.670Z,22.71
2018-08-22T06:48:43.554Z,22.86
2018-08-22T06:50:36.237Z,23.12
2018-08-22T06:51:36.136Z,23.19
2018-08-22T06:53:28.851Z,23.77
2018-08-22T06:54:28.734Z,24.63
2018-08-22T06:56:21.440Z,24.96
2018-08-22T06:57:21.336Z,25.11
2018-08-22T06:59:14.046Z,24.89
2018-08-22T07:00:13.926Z,24.85
2018-08-22T07:02:06.641Z,24.89
2018-08-22T07:03:06.541Z,24.93
2018-08-22T07:04:59.227Z,24.92
2018-08-22T07:05:59.139Z,24.96
2018-08-22T07:07:51.893Z,25.04
2018-08-22T07:08:51.739Z,25.04
2018-08-22T07:10:44.443Z,24.93
2018-08-22T07:11:44.321Z,25.30
2018-08-22T07:13:37.036Z,25.23
2018-08-22T07:14:36.925Z,25.19
2018-08-22T07:16:29.640Z,24.89
2018-08-22T07:17:29.519Z,24.78
2018-08-22T07:19:22.840Z,24.67
2018-08-22T07:20:22.122Z,24.61
2018-08-22T07:22:14.826Z,24.58
2018-08-22T07:23:14.715Z,24.46
2018-08-22T07:25:07.407Z,24.33
2018-08-22T07:26:07.310Z,24.29
2018-08-22T07:28:00.015Z,24.29
2018-08-22T07:28:59.900Z,24.26
2018-08-22T07:30:52.597Z,24.83
2018-08-22T07:31:52.502Z,24.92
2018-08-22T07:33:45.200Z,26.89
2018-08-22T07:34:45.085Z,28.06
2018-08-22T07:36:37.801Z,29.50
2018-08-22T07:37:37.681Z,30.04
2018-08-22T07:39:30.409Z,30.69
2018-08-22T07:40:30.295Z,31.12
2018-08-22T07:42:23.012Z,31.49
2018-08-22T07:43:22.915Z,31.62
2018-08-22T07:45:15.604Z,31.68
2018-08-22T07:46:15.514Z,31.90
2018-08-22T07:48:08.263Z,31.87
2018-08-22T07:49:08.169Z,32.06
2018-08-22T07:51:00.863Z,32.50
2018-08-22T07:52:00.773Z,32.74
2018-08-22T07:53:53.508Z,32.98
2018-08-22T07:54:53.387Z,33.08
2018-08-22T07:56:46.103Z,33.26
2018-08-22T07:57:46.008Z,33.06
2018-08-22T07:59:38.757Z,33.01
2018-08-22T08:00:38.624Z,32.90
2018-08-22T08:02:31.336Z,32.93
2018-08-22T08:03:31.234Z,32.74
2018-08-22T08:05:24.034Z,32.74
2018-08-22T08:06:23.852Z,32.93
2018-08-22T08:08:16.591Z,33.09
2018-08-22T08:09:16.481Z,33.12
2018-08-22T08:11:09.172Z,32.42
2018-08-22T08:12:09.083Z,32.64
2018-08-22T08:14:01.810Z,32.62
2018-08-22T08:15:01.704Z,32.42
2018-08-22T08:16:54.426Z,32.31
2018-08-22T08:17:54.317Z,31.91
2018-08-22T08:19:47.016Z,31.31
2018-08-22T08:20:46.916Z,30.77
2018-08-22T08:22:39.642Z,30.40
2018-08-22T08:23:39.542Z,30.21
2018-08-22T08:25:32.245Z,29.95
2018-08-22T08:26:32.150Z,29.79
2018-08-22T08:28:24.878Z,29.33
2018-08-22T08:29:24.757Z,29.03
2018-08-22T08:31:17.615Z,28.64
2018-08-22T08:32:17.375Z,28.55
2018-08-22T08:34:10.086Z,28.11
2018-08-22T08:35:09.982Z,27.96
2018-08-22T08:37:02.695Z,28.03
2018-08-22T08:38:02.621Z,27.96
2018-08-22T08:39:55.287Z,27.81
2018-08-22T08:40:55.215Z,27.72
2018-08-22T08:42:47.910Z,27.79
2018-08-22T08:43:47.796Z,27.90
2018-08-22T08:45:40.495Z,27.83
2018-08-22T08:46:40.398Z,27.90
2018-08-22T08:48:33.105Z,27.86
2018-08-22T08:49:33.079Z,27.93
2018-08-22T08:51:25.710Z,27.90
2018-08-22T08:52:25.629Z,27.87
2018-08-22T08:54:18.332Z,27.90
2018-08-22T08:55:18.218Z,27.87
2018-08-22T08:57:10.950Z,27.93
2018-08-22T08:58:10.816Z,27.99
2018-08-22T09:00:03.516Z,28.06
2018-08-22T09:01:03.417Z,27.94
2018-08-22T09:02:56.141Z,27.90
2018-08-22T09:03:56.046Z,27.86
2018-08-22T09:05:48.711Z,27.79
2018-08-22T09:06:48.620Z,27.96
2018-08-22T09:08:41.330Z,27.96
2018-08-22T09:09:41.213Z,28.06
2018-08-22T09:11:33.925Z,28.05
2018-08-22T09:12:33.832Z,28.08
2018-08-22T09:14:26.540Z,28.12
2018-08-22T09:15:26.444Z,28.14
2018-08-22T09:17:19.161Z,28.18
2018-08-22T09:18:19.024Z,28.24
2018-08-22T09:20:11.740Z,28.16
2018-08-22T09:21:11.687Z,28.20
2018-08-22T09:23:04.325Z,28.24
2018-08-22T09:24:04.276Z,28.28
2018-08-22T09:25:56.918Z,28.46
2018-08-22T09:26:56.812Z,28.57
2018-08-22T09:28:49.522Z,28.60
2018-08-22T09:29:49.426Z,28.57
2018-08-22T09:31:42.592Z,28.58
2018-08-22T09:32:42.500Z,28.64
2018-08-22T09:34:35.213Z,28.65
2018-08-22T09:35:35.173Z,28.76
2018-08-22T09:37:27.811Z,28.72
2018-08-22T09:38:27.699Z,28.83
2018-08-22T09:40:20.392Z,28.86
2018-08-22T09:41:20.292Z,28.91
2018-08-22T09:43:13.016Z,28.98
2018-08-22T09:44:12.905Z,29.06
2018-08-22T09:46:05.593Z,29.17
2018-08-22T09:47:05.515Z,29.13
2018-08-22T09:48:58.206Z,29.08
2018-08-22T09:49:58.089Z,29.06
2018-08-22T09:51:50.787Z,29.06
2018-08-22T09:52:50.680Z,29.03
2018-08-22T09:54:43.519Z,28.97
2018-08-22T09:55:43.280Z,29.13
2018-08-22T09:57:35.999Z,29.08
2018-08-22T09:58:35.915Z,29.23
2018-08-22T10:00:28.581Z,29.38
2018-08-22T10:01:28.486Z,29.39
2018-08-22T10:03:21.193Z,29.43
2018-08-22T10:04:21.090Z,29.39
2018-08-22T10:06:13.849Z,29.40
2018-08-22T10:07:13.848Z,29.30
2018-08-22T10:09:06.397Z,29.38
2018-08-22T10:10:06.302Z,29.52
2018-08-22T10:11:58.983Z,29.38
2018-08-22T10:12:58.880Z,29.54
2018-08-22T10:14:51.635Z,29.40
2018-08-22T10:15:51.494Z,29.40
2018-08-22T10:17:44.234Z,29.51
2018-08-22T10:18:44.823Z,29.39
2018-08-22T10:20:36.933Z,29.39
2018-08-22T10:21:36.694Z,29.35
2018-08-22T10:23:30.072Z,29.33
2018-08-22T10:24:29.310Z,29.23
2018-08-22T10:26:21.994Z,28.97
2018-08-22T10:27:21.892Z,29.08
2018-08-22T10:29:15.287Z,29.14
2018-08-22T10:30:16.234Z,29.18
2018-08-22T10:32:07.183Z,29.32
2018-08-22T10:33:07.124Z,29.39
2018-08-22T10:34:59.836Z,29.60
2018-08-22T10:38:19.315Z,30.03
2018-08-22T10:38:39.936Z,30.18
2018-08-22T10:40:34.425Z,30.07
2018-08-22T10:41:32.494Z,30.29
2018-08-22T10:43:25.237Z,30.39
2018-08-22T10:44:25.206Z,30.56
2018-08-22T10:46:17.724Z,30.62
2018-08-22T10:47:17.594Z,30.63
2018-08-22T10:49:10.411Z,30.51
2018-08-22T10:50:10.278Z,30.57
2018-08-22T10:52:02.937Z,30.59
2018-08-22T10:53:02.835Z,30.69
2018-08-22T10:54:55.689Z,30.77
2018-08-22T10:55:55.499Z,30.88
2018-08-22T10:57:48.238Z,30.89
2018-08-22T10:58:48.013Z,30.85
2018-08-22T11:00:40.711Z,30.85
2018-08-22T11:01:40.611Z,30.75
2018-08-22T11:03:33.336Z,30.37
2018-08-22T11:04:33.220Z,30.31
2018-08-22T11:06:25.920Z,30.24
2018-08-22T11:07:25.821Z,30.21
2018-08-22T11:09:18.535Z,30.22
2018-08-22T11:10:18.426Z,30.29
2018-08-22T11:12:11.123Z,30.39
2018-08-22T11:13:11.025Z,30.42
2018-08-22T11:15:03.736Z,30.42
2018-08-22T11:16:03.684Z,30.40
2018-08-22T11:17:56.345Z,30.25
2018-08-22T11:18:56.232Z,30.16
2018-08-22T11:20:48.921Z,30.32
2018-08-22T11:21:48.834Z,30.42
2018-08-22T11:23:41.536Z,30.52
2018-08-22T11:24:41.424Z,30.48
2018-08-22T11:26:34.128Z,30.44
2018-08-22T11:27:34.025Z,30.64
2018-08-22T11:29:26.742Z,30.66
2018-08-22T11:30:26.626Z,30.60
2018-08-22T11:32:19.322Z,30.66
2018-08-22T11:33:19.236Z,30.64
2018-08-22T11:35:11.952Z,30.64
2018-08-22T11:36:11.843Z,30.59
2018-08-22T11:38:04.530Z,30.54
2018-08-22T11:39:04.435Z,30.48
2018-08-22T11:40:57.148Z,30.60
2018-08-22T11:41:57.037Z,30.64
2018-08-22T11:43:49.733Z,30.66
2018-08-22T11:44:49.638Z,30.78
2018-08-22T11:46:42.430Z,30.89
2018-08-22T11:47:42.261Z,30.96
2018-08-22T11:49:34.973Z,30.94
2018-08-22T11:50:34.859Z,30.94
2018-08-22T11:52:27.563Z,30.88
2018-08-22T11:53:27.456Z,30.79
2018-08-22T11:55:20.189Z,30.91
2018-08-22T11:56:20.087Z,30.75
2018-08-22T11:58:12.781Z,30.44
2018-08-22T11:59:12.687Z,30.40
2018-08-22T12:01:05.391Z,30.34
2018-08-22T12:02:05.287Z,30.47
2018-08-22T12:03:58.053Z,30.77
2018-08-22T12:04:57.924Z,30.66
2018-08-22T12:06:50.621Z,30.75
2018-08-22T12:07:50.523Z,30.79
2018-08-22T12:09:43.238Z,30.91
2018-08-22T12:10:43.122Z,31.03
2018-08-22T12:12:35.911Z,30.99
2018-08-22T12:13:35.733Z,30.97
2018-08-22T12:15:28.444Z,31.33
2018-08-22T12:16:28.335Z,31.22
2018-08-22T12:18:21.033Z,31.19
2018-08-22T12:19:20.934Z,31.23
2018-08-22T12:21:13.654Z,31.34
2018-08-22T12:22:13.541Z,31.36
2018-08-22T12:24:06.245Z,31.37
2018-08-22T12:25:06.140Z,31.36
2018-08-22T12:26:58.836Z,31.53
2018-08-22T12:27:58.741Z,31.47
2018-08-22T12:29:51.456Z,31.41
2018-08-22T12:30:51.407Z,31.40
2018-08-22T12:32:44.065Z,31.43
2018-08-22T12:33:43.953Z,31.53
2018-08-22T12:35:36.659Z,31.58
2018-08-22T12:36:36.550Z,31.68
2018-08-22T12:38:29.244Z,31.56
2018-08-22T12:39:29.151Z,31.56
2018-08-22T12:41:21.865Z,31.52
2018-08-22T12:42:21.882Z,31.52
2018-08-22T12:44:14.469Z,31.59
2018-08-22T12:45:14.352Z,31.34
2018-08-22T12:47:07.055Z,31.06
2018-08-22T12:48:06.966Z,30.99
2018-08-22T12:49:59.681Z,30.79
2018-08-22T12:50:59.564Z,30.79
2018-08-22T12:52:52.262Z,30.82
2018-08-22T12:53:52.200Z,30.78
2018-08-22T12:55:44.882Z,30.91
2018-08-22T12:56:44.760Z,31.06
2018-08-22T12:58:37.467Z,31.07
2018-08-22T12:59:37.391Z,31.10
2018-08-22T13:01:30.135Z,31.23
2018-08-22T13:02:29.973Z,31.40
2018-08-22T13:04:22.681Z,31.58
2018-08-22T13:05:22.584Z,31.63
2018-08-22T13:07:15.269Z,31.68
2018-08-22T13:08:15.176Z,31.71
2018-08-22T13:10:07.895Z,31.70
2018-08-22T13:11:07.861Z,31.45
2018-08-22T13:13:00.475Z,31.40
2018-08-22T13:14:00.379Z,31.40
2018-08-22T13:15:53.090Z,31.62
2018-08-22T13:16:53.045Z,31.58
2018-08-22T13:18:45.689Z,31.47
2018-08-22T13:19:45.589Z,31.45
2018-08-22T13:21:38.305Z,31.49
2018-08-22T13:22:38.188Z,31.44
2018-08-22T13:24:30.931Z,31.34
2018-08-22T13:25:30.793Z,31.33
2018-08-22T13:27:23.494Z,31.47
2018-08-22T13:28:23.401Z,31.60
2018-08-22T13:30:16.156Z,31.71
2018-08-22T13:31:15.997Z,31.72
2018-08-22T13:33:09.203Z,31.74
2018-08-22T13:34:08.868Z,31.55
2018-08-22T13:36:01.580Z,31.06
2018-08-22T13:37:01.470Z,30.99
2018-08-22T13:38:54.172Z,31.03
2018-08-22T13:39:54.068Z,30.91
2018-08-22T13:41:46.789Z,30.94
2018-08-22T13:42:46.736Z,31.23
2018-08-22T13:44:39.388Z,31.31
2018-08-22T13:45:39.340Z,31.13
2018-08-22T13:47:31.973Z,30.86
2018-08-22T13:48:31.877Z,30.86
2018-08-22T13:50:24.588Z,30.79
2018-08-22T13:51:24.482Z,30.77
2018-08-22T13:53:17.184Z,30.73
2018-08-22T13:54:17.082Z,30.82
2018-08-22T13:56:09.877Z,30.93
2018-08-22T13:57:09.682Z,31.23
2018-08-22T13:59:02.401Z,31.36
2018-08-22T14:00:02.289Z,31.47
2018-08-22T14:01:55.024Z,31.63
2018-08-22T14:02:54.890Z,31.56
2018-08-22T14:04:47.595Z,31.87
2018-08-22T14:05:47.487Z,31.90
2018-08-22T14:07:40.193Z,31.70
2018-08-22T14:08:40.096Z,31.49
2018-08-22T14:10:32.827Z,31.56
2018-08-22T14:11:32.706Z,31.63
2018-08-22T14:13:25.402Z,31.67
2018-08-22T14:14:25.310Z,31.52
2018-08-22T14:16:18.035Z,31.43
2018-08-22T14:17:17.917Z,31.56
2018-08-22T14:19:10.639Z,31.45
2018-08-22T14:20:10.524Z,31.50
2018-08-22T14:22:03.221Z,31.33
2018-08-22T14:23:03.128Z,31.15
2018-08-22T14:24:55.847Z,30.91
2018-08-22T14:25:55.741Z,31.01
2018-08-22T14:27:48.436Z,31.21
2018-08-22T14:28:48.336Z,30.97
2018-08-22T14:30:41.049Z,31.12
2018-08-22T14:31:40.944Z,31.10
2018-08-22T14:33:33.714Z,31.21
2018-08-22T14:34:33.547Z,31.16
2018-08-22T14:36:26.266Z,31.23
2018-08-22T14:37:26.159Z,31.37
2018-08-22T14:39:18.916Z,31.30
2018-08-22T14:40:18.766Z,31.36
2018-08-22T14:42:11.467Z,31.37
2018-08-22T14:43:11.422Z,31.07
2018-08-22T14:45:04.089Z,30.99
2018-08-22T14:46:03.972Z,31.01
2018-08-22T14:47:56.667Z,31.22
2018-08-22T14:48:56.577Z,31.15
2018-08-22T14:50:49.305Z,31.10
2018-08-22T14:51:49.186Z,31.22
2018-08-22T14:53:41.883Z,31.31
2018-08-22T14:54:41.789Z,31.31
2018-08-22T14:56:34.592Z,31.33
2018-08-22T14:57:34.384Z,31.44
2018-08-22T14:59:27.104Z,31.41
2018-08-22T15:00:26.990Z,31.53
2018-08-22T15:02:19.783Z,31.47
2018-08-22T15:03:19.785Z,31.38
2018-08-22T15:05:12.308Z,31.31
2018-08-22T15:06:12.197Z,31.30
2018-08-22T15:08:04.902Z,31.28
2018-08-22T15:09:04.827Z,31.28
2018-08-22T15:10:57.535Z,31.28
2018-08-22T15:11:57.413Z,31.19
2018-08-22T15:13:50.118Z,31.31
2018-08-22T15:14:50.029Z,31.26
2018-08-22T15:16:42.745Z,31.03
2018-08-22T15:17:42.646Z,31.19
2018-08-22T15:19:35.377Z,31.31
2018-08-22T15:20:35.244Z,31.26
2018-08-22T15:22:27.959Z,31.38
2018-08-22T15:23:27.847Z,31.45
2018-08-22T15:25:20.562Z,31.52
2018-08-22T15:26:20.447Z,31.71
2018-08-22T15:28:13.162Z,31.74
2018-08-22T15:29:13.045Z,31.58
2018-08-22T15:31:05.764Z,31.30
2018-08-22T15:32:05.655Z,31.33
2018-08-22T15:33:58.403Z,31.21
2018-08-22T15:34:58.254Z,31.10
2018-08-22T15:36:50.971Z,31.22
2018-08-22T15:37:50.855Z,31.12
2018-08-22T15:39:43.573Z,31.28
2018-08-22T15:40:43.467Z,31.31
2018-08-22T15:42:36.157Z,31.08
2018-08-22T15:43:36.058Z,31.10
2018-08-22T15:45:28.792Z,31.13
2018-08-22T15:46:28.664Z,31.21
2018-08-22T15:48:21.367Z,31.19
2018-08-22T15:49:21.265Z,30.97
2018-08-22T15:51:13.987Z,30.99
2018-08-22T15:52:13.878Z,30.78
2018-08-22T15:54:06.572Z,30.82
2018-08-22T15:55:06.473Z,30.75
2018-08-22T15:56:59.192Z,30.85
2018-08-22T15:57:59.080Z,30.82
2018-08-22T15:59:51.810Z,30.86
2018-08-22T16:00:51.694Z,30.82
2018-08-22T16:02:44.447Z,30.75
2018-08-22T16:03:44.354Z,30.79
2018-08-22T16:05:37.066Z,30.79
2018-08-22T16:06:36.949Z,30.77
2018-08-22T16:08:29.650Z,30.73
2018-08-22T16:09:29.560Z,30.64
2018-08-22T16:11:22.274Z,30.60
2018-08-22T16:12:22.153Z,30.63
2018-08-22T16:14:14.858Z,30.84
2018-08-22T16:15:14.766Z,30.79
2018-08-22T16:17:07.476Z,30.82
2018-08-22T16:18:07.359Z,30.81
2018-08-22T16:20:00.075Z,30.62
2018-08-22T16:20:59.965Z,30.64
2018-08-22T16:22:52.660Z,30.54
2018-08-22T16:23:52.563Z,30.57
2018-08-22T16:25:45.273Z,30.42
2018-08-22T16:26:45.162Z,30.34
2018-08-22T16:28:37.862Z,30.22
2018-08-22T16:29:37.771Z,30.24
2018-08-22T16:31:30.475Z,30.24
2018-08-22T16:32:30.363Z,30.24
2018-08-22T16:34:23.067Z,30.19
2018-08-22T16:35:22.975Z,30.16
2018-08-22T16:37:15.676Z,30.22
2018-08-22T16:38:15.559Z,30.34
2018-08-22T16:40:08.285Z,30.25
2018-08-22T16:41:08.165Z,30.11
2018-08-22T16:43:00.860Z,30.14
2018-08-22T16:44:00.762Z,30.10
2018-08-22T16:45:53.479Z,30.07
2018-08-22T16:46:53.365Z,30.06
2018-08-22T16:48:46.075Z,30.02
2018-08-22T16:49:45.981Z,29.98
2018-08-22T16:51:38.705Z,29.98
2018-08-22T16:52:38.591Z,29.95
2018-08-22T16:54:31.296Z,29.94
2018-08-22T16:55:31.192Z,29.81
2018-08-22T16:57:23.914Z,29.72
2018-08-22T16:58:23.895Z,29.67
2018-08-22T17:00:16.507Z,29.73
2018-08-22T17:01:16.394Z,29.69
2018-08-22T17:03:09.178Z,29.58
2018-08-22T17:04:08.987Z,29.50
2018-08-22T17:06:01.701Z,29.48
2018-08-22T17:07:01.588Z,29.48
2018-08-22T17:08:54.277Z,29.55
2018-08-22T17:09:54.178Z,29.52
2018-08-22T17:11:46.896Z,29.55
2018-08-22T17:12:46.786Z,29.39
2018-08-22T17:14:39.483Z,29.42
2018-08-22T17:15:39.378Z,29.42
2018-08-22T17:17:32.094Z,29.29
2018-08-22T17:18:31.985Z,29.29
2018-08-22T17:20:24.690Z,29.30
2018-08-22T17:21:24.578Z,29.48
2018-08-22T17:23:17.350Z,29.50
2018-08-22T17:24:17.176Z,29.47
2018-08-22T17:26:09.924Z,29.40
2018-08-22T17:27:09.792Z,29.32
2018-08-22T17:29:02.466Z,29.01
2018-08-22T17:30:02.365Z,28.98
2018-08-22T17:31:55.097Z,28.86
2018-08-22T17:32:55.004Z,28.83
2018-08-22T17:34:47.671Z,28.82
2018-08-22T17:35:47.587Z,28.76
2018-08-22T17:37:40.285Z,28.60
2018-08-22T17:38:40.172Z,28.57
2018-08-22T17:40:32.882Z,28.48
2018-08-22T17:41:32.786Z,28.49
2018-08-22T17:43:25.460Z,28.33
2018-08-22T17:44:25.358Z,28.39
2018-08-22T17:46:18.067Z,28.24
2018-08-22T17:47:17.958Z,28.21
2018-08-22T17:49:10.653Z,28.24
2018-08-22T17:50:10.557Z,28.08
2018-08-22T17:52:03.268Z,28.11
2018-08-22T17:53:03.146Z,28.09
2018-08-22T17:54:55.840Z,28.03
2018-08-22T17:55:55.738Z,27.98
2018-08-22T17:57:48.452Z,27.86
2018-08-22T17:58:48.331Z,27.86
2018-08-22T18:00:41.051Z,27.80
2018-08-22T18:01:40.932Z,27.71
2018-08-22T18:03:33.622Z,27.69
2018-08-22T18:04:33.525Z,27.66
2018-08-22T18:06:26.324Z,27.57
2018-08-22T18:07:26.116Z,27.57
2018-08-22T18:09:18.820Z,27.52
2018-08-22T18:10:18.727Z,27.49
2018-08-22T18:12:11.417Z,27.48
2018-08-22T18:13:11.301Z,27.42
2018-08-22T18:15:04.038Z,27.31
2018-08-22T18:16:03.905Z,27.24
2018-08-22T18:17:56.594Z,27.24
2018-08-22T18:18:56.492Z,27.21
2018-08-22T18:20:49.207Z,27.19
2018-08-22T18:21:49.093Z,27.05
2018-08-22T18:23:41.790Z,27.06
2018-08-22T18:24:41.692Z,26.99
2018-08-22T18:26:34.405Z,27.00
2018-08-22T18:27:34.343Z,26.93
2018-08-22T18:29:26.986Z,26.87
2018-08-22T18:30:26.885Z,26.94
2018-08-22T18:32:19.592Z,26.84
2018-08-22T18:33:19.472Z,26.78
2018-08-22T18:35:12.173Z,26.75
2018-08-22T18:36:12.133Z,26.78
2018-08-22T18:38:04.787Z,26.69
2018-08-22T18:39:04.665Z,26.64
2018-08-22T18:40:57.376Z,26.61
2018-08-22T18:41:57.253Z,26.54
2018-08-22T18:43:49.944Z,26.56
2018-08-22T18:44:49.867Z,26.41
2018-08-22T18:46:42.559Z,26.41
2018-08-22T18:47:42.443Z,26.42
2018-08-22T18:49:35.140Z,26.34
2018-08-22T18:50:35.030Z,26.32
2018-08-22T18:52:27.742Z,26.32
2018-08-22T18:53:27.627Z,26.26
2018-08-22T18:55:20.322Z,26.23
2018-08-22T18:56:20.223Z,26.22
2018-08-22T18:58:12.934Z,26.12
2018-08-22T18:59:12.826Z,26.17
2018-08-22T19:01:05.531Z,26.09
2018-08-22T19:02:05.414Z,25.99
2018-08-22T19:03:58.103Z,26.04
2018-08-22T19:04:58.011Z,25.99
2018-08-22T19:06:50.714Z,25.96
2018-08-22T19:07:50.603Z,25.96
2018-08-22T19:09:43.288Z,25.84
2018-08-22T19:10:43.187Z,25.82
2018-08-22T19:12:35.891Z,25.89
2018-08-22T19:13:35.785Z,25.89
2018-08-22T19:15:28.477Z,25.71
2018-08-22T19:16:28.378Z,25.84
2018-08-22T19:18:21.082Z,25.64
2018-08-22T19:19:20.968Z,25.70
2018-08-22T19:21:13.672Z,25.67
2018-08-22T19:22:13.561Z,25.62
2018-08-22T19:24:06.259Z,25.56
2018-08-22T19:25:06.161Z,25.54
2018-08-22T19:26:58.861Z,25.51
2018-08-22T19:27:58.752Z,25.41
2018-08-22T19:29:51.448Z,25.39
2018-08-22T19:30:51.350Z,25.39
2018-08-22T19:32:44.048Z,25.33
2018-08-22T19:33:43.931Z,25.33
2018-08-22T19:35:36.651Z,25.24
2018-08-22T19:36:36.621Z,25.17
2018-08-22T19:38:29.382Z,25.17
2018-08-22T19:39:29.116Z,25.20
2018-08-22T19:41:21.824Z,25.11
2018-08-22T19:42:21.708Z,25.05
2018-08-22T19:44:14.401Z,25.00
2018-08-22T19:45:14.292Z,25.07
2018-08-22T19:47:07.000Z,24.97
2018-08-22T19:48:06.885Z,24.96
2018-08-22T19:49:59.572Z,24.89
2018-08-22T19:50:59.478Z,24.93
2018-08-22T19:52:52.182Z,24.80
2018-08-22T19:53:52.069Z,24.85
2018-08-22T19:55:44.757Z,24.85
2018-08-22T19:56:44.650Z,24.82
2018-08-22T19:58:37.363Z,24.66
2018-08-22T19:59:37.244Z,24.71
2018-08-22T20:01:29.968Z,24.66
2018-08-22T20:02:29.848Z,24.67
2018-08-22T20:04:22.551Z,24.59
2018-08-22T20:05:22.448Z,24.64
2018-08-22T20:07:15.161Z,24.49
2018-08-22T20:08:15.040Z,24.61
2018-08-22T20:10:07.732Z,24.59
2018-08-22T20:11:07.632Z,24.58
2018-08-22T20:13:00.341Z,24.52
2018-08-22T20:14:00.228Z,24.52
2018-08-22T20:15:52.908Z,24.49
2018-08-22T20:16:52.852Z,24.44
2018-08-22T20:18:45.517Z,24.52
2018-08-22T20:19:45.403Z,24.42
2018-08-22T20:21:38.113Z,24.44
2018-08-22T20:22:37.991Z,24.40
2018-08-22T20:24:30.749Z,24.37
2018-08-22T20:25:30.584Z,24.33
2018-08-22T20:27:23.301Z,24.29
2018-08-22T20:28:23.187Z,24.34
2018-08-22T20:30:15.904Z,24.30
2018-08-22T20:31:15.776Z,24.30
2018-08-22T20:33:08.483Z,24.33
2018-08-22T20:34:08.364Z,24.17
2018-08-22T20:36:01.051Z,24.15
2018-08-22T20:37:00.948Z,24.12
2018-08-22T20:38:53.657Z,24.14
2018-08-22T20:39:53.538Z,24.17
2018-08-22T20:41:46.263Z,24.17
2018-08-22T20:42:46.157Z,24.15
2018-08-22T20:44:38.813Z,24.09
2018-08-22T20:45:38.711Z,24.09
2018-08-22T20:47:31.411Z,24.03
2018-08-22T20:48:31.297Z,24.08
2018-08-22T20:50:23.986Z,23.94
2018-08-22T20:51:23.885Z,23.97
2018-08-22T20:53:16.595Z,23.87
2018-08-22T20:54:16.472Z,23.92
2018-08-22T20:56:09.167Z,23.85
2018-08-22T20:57:09.071Z,23.84
2018-08-22T20:59:01.781Z,23.78
2018-08-22T21:00:01.659Z,23.78
2018-08-22T21:01:54.345Z,23.81
2018-08-22T21:02:54.294Z,23.74
2018-08-22T21:04:46.949Z,23.72
2018-08-22T21:05:46.832Z,23.71
2018-08-22T21:07:39.550Z,23.64
2018-08-22T21:08:39.475Z,23.63
2018-08-22T21:10:32.111Z,23.71
2018-08-22T21:11:32.012Z,23.67
2018-08-22T21:13:24.718Z,23.56
2018-08-22T21:14:24.615Z,23.57
2018-08-22T21:16:17.285Z,23.63
2018-08-22T21:17:17.196Z,23.62
2018-08-22T21:19:09.895Z,23.55
2018-08-22T21:20:09.783Z,23.52
2018-08-22T21:22:02.462Z,23.56
2018-08-22T21:23:02.361Z,23.45
2018-08-22T21:24:55.134Z,23.42
2018-08-22T21:25:54.945Z,23.40
2018-08-22T21:27:47.663Z,23.42
2018-08-22T21:28:47.548Z,23.38
2018-08-22T21:30:40.236Z,23.41
2018-08-22T21:31:40.137Z,23.35
2018-08-22T21:33:32.880Z,23.42
2018-08-22T21:34:32.735Z,23.41
2018-08-22T21:36:25.418Z,23.22
2018-08-22T21:37:25.311Z,23.22
2018-08-22T21:39:18.035Z,23.21
2018-08-22T21:40:17.908Z,23.19
2018-08-22T21:42:10.603Z,23.21
2018-08-22T21:43:10.539Z,23.21
2018-08-22T21:45:03.220Z,23.19
2018-08-22T21:46:03.088Z,23.21
2018-08-22T21:47:55.794Z,23.15
2018-08-22T21:48:55.682Z,23.14
2018-08-22T21:50:48.458Z,23.09
2018-08-22T21:51:48.370Z,23.16
2018-08-22T21:53:41.039Z,23.10
2018-08-22T21:54:40.948Z,23.03
2018-08-22T21:56:33.647Z,23.04
2018-08-22T21:57:33.517Z,23.06
2018-08-22T21:59:26.230Z,23.06
